Time;durP1;ratioP1;P1;durP2;ratioP2;P2;SDS_P1;SDS_P2;PMS_P1;PMS_P2;Temp;Humidity;BMP_temperature;BMP_pressure;BME280_temperature;BME280_humidity;BME280_pressure;Samples;Min_cycle;Max_cycle;Signal;HPM_P1;HPM_P2
2021/04/07 00:00:47;;;;;;;10.25;4.22;;;;;;;;;;5205572;27;20031;-84
2021/04/07 00:03:15;;;;;;;9.80;4.12;;;;;;;;;;5211056;27;20037;-84
2021/04/07 00:05:44;;;;;;;9.05;4.00;;;;;;;;;;5188610;27;20023;-86
2021/04/07 00:08:20;;;;;;;11.23;4.40;;;;;;;;;;5184742;27;20452;-85
2021/04/07 00:10:48;;;;;;;9.13;3.85;;;;;;;;;;5208865;27;20027;-85
2021/04/07 00:13:17;;;;;;;13.40;3.80;;;;;;;;;;5203382;27;20567;-85
2021/04/07 00:15:45;;;;;;;12.07;4.60;;;;;;;;;;5170026;27;20029;-84
2021/04/07 00:18:13;;;;;;;10.57;4.45;;;;;;;;;;5186653;27;20035;-85
2021/04/07 00:20:43;;;;;;;11.48;4.40;;;;;;;;;;5206282;27;20414;-84
2021/04/07 00:23:11;;;;;;;10.27;4.00;;;;;;;;;;5193074;27;20314;-84
2021/04/07 00:25:42;;;;;;;11.77;3.97;;;;;;;;;;5207625;27;20521;-85
2021/04/07 00:28:11;;;;;;;6.72;4.10;;;;;;;;;;5208896;27;20371;-84
2021/04/07 00:30:39;;;;;;;7.32;4.20;;;;;;;;;;5189700;27;20035;-85
2021/04/07 00:33:07;;;;;;;8.70;4.22;;;;;;;;;;5209832;27;20041;-85
2021/04/07 00:35:38;;;;;;;9.45;4.37;;;;;;;;;;5205207;27;20491;-85
2021/04/07 00:38:06;;;;;;;12.85;4.87;;;;;;;;;;5207049;27;20030;-85
2021/04/07 00:40:34;;;;;;;11.60;4.72;;;;;;;;;;5209994;27;20033;-85
2021/04/07 00:43:03;;;;;;;10.32;4.87;;;;;;;;;;5172768;27;20033;-85
2021/04/07 00:45:30;;;;;;;14.10;4.75;;;;;;;;;;5205278;27;20055;-85
2021/04/07 00:47:59;;;;;;;12.55;4.90;;;;;;;;;;5203946;27;20389;-86
2021/04/07 00:50:28;;;;;;;8.43;4.60;;;;;;;;;;5207958;27;20552;-85
2021/04/07 00:52:56;;;;;;;12.57;4.43;;;;;;;;;;5205573;27;20033;-85
2021/04/07 00:55:29;;;;;;;11.32;4.03;;;;;;;;;;5205849;27;20034;-85
2021/04/07 00:57:58;;;;;;;12.43;4.30;;;;;;;;;;5209509;27;20031;-85
2021/04/07 01:00:26;;;;;;;9.93;4.32;;;;;;;;;;5209513;27;20027;-85
2021/04/07 01:02:55;;;;;;;13.05;4.50;;;;;;;;;;5207682;27;20026;-83
2021/04/07 01:05:23;;;;;;;9.80;4.40;;;;;;;;;;5206060;27;20045;-86
2021/04/07 01:07:52;;;;;;;10.70;4.07;;;;;;;;;;5189937;27;20035;-84
2021/04/07 01:10:22;;;;;;;12.20;4.32;;;;;;;;;;5210485;27;20054;-85
2021/04/07 01:12:51;;;;;;;10.07;4.37;;;;;;;;;;5208934;27;20062;-85
2021/04/07 01:15:19;;;;;;;9.48;4.32;;;;;;;;;;5206605;27;20035;-85
2021/04/07 01:17:47;;;;;;;9.13;4.00;;;;;;;;;;5190145;27;20034;-84
2021/04/07 01:20:20;;;;;;;8.15;4.25;;;;;;;;;;5200855;27;20031;-84
2021/04/07 01:22:51;;;;;;;9.55;3.95;;;;;;;;;;5208476;27;20081;-86
2021/04/07 01:25:21;;;;;;;10.60;4.68;;;;;;;;;;5207587;27;20057;-84
2021/04/07 01:27:49;;;;;;;11.32;4.57;;;;;;;;;;5210491;27;20539;-85
2021/04/07 01:30:18;;;;;;;16.10;5.03;;;;;;;;;;5205737;27;20418;-85
2021/04/07 01:32:46;;;;;;;17.77;5.10;;;;;;;;;;5206382;27;20045;-86
2021/04/07 01:35:17;;;;;;;15.60;4.53;;;;;;;;;;5205058;27;20417;-84
2021/04/07 01:37:45;;;;;;;8.80;4.07;;;;;;;;;;5206741;27;20100;-85
2021/04/07 01:40:16;;;;;;;10.88;4.80;;;;;;;;;;5212902;27;20023;-84
2021/04/07 01:42:45;;;;;;;11.27;4.53;;;;;;;;;;5206821;27;20045;-86
2021/04/07 01:45:13;;;;;;;10.52;4.62;;;;;;;;;;5204972;27;20030;-86
2021/04/07 01:47:42;;;;;;;11.05;4.10;;;;;;;;;;5210790;27;20379;-84
2021/04/07 01:50:10;;;;;;;11.43;4.20;;;;;;;;;;5211580;27;20031;-86
2021/04/07 01:52:38;;;;;;;8.35;3.85;;;;;;;;;;5208769;27;20049;-83
2021/04/07 01:55:06;;;;;;;8.32;4.35;;;;;;;;;;5207261;27;20411;-85
2021/04/07 01:57:34;;;;;;;15.55;4.62;;;;;;;;;;5209318;27;20030;-83
2021/04/07 02:00:05;;;;;;;12.95;4.80;;;;;;;;;;5206713;27;20037;-85
2021/04/07 02:02:38;;;;;;;10.45;4.32;;;;;;;;;;5207770;27;20048;-85
2021/04/07 02:05:07;;;;;;;11.98;5.07;;;;;;;;;;5186335;27;20460;-86
2021/04/07 02:07:35;;;;;;;12.18;4.37;;;;;;;;;;5212467;27;20479;-84
2021/04/07 02:10:08;;;;;;;7.55;4.28;;;;;;;;;;5205427;27;20041;-86
2021/04/07 02:12:36;;;;;;;10.30;4.37;;;;;;;;;;5203081;27;20030;-86
2021/04/07 02:15:11;;;;;;;8.73;4.05;;;;;;;;;;5206859;27;20062;-85
2021/04/07 02:17:39;;;;;;;9.50;3.90;;;;;;;;;;5209474;27;20125;-85
2021/04/07 02:20:09;;;;;;;11.12;4.50;;;;;;;;;;5204798;27;20065;-85
2021/04/07 02:22:37;;;;;;;8.25;3.92;;;;;;;;;;5205755;27;20439;-85
2021/04/07 02:25:06;;;;;;;8.63;4.18;;;;;;;;;;5206245;27;20031;-84
2021/04/07 02:27:35;;;;;;;9.77;4.40;;;;;;;;;;5207758;27;20035;-85
2021/04/07 02:30:05;;;;;;;8.32;4.22;;;;;;;;;;5202976;27;20418;-84
2021/04/07 02:32:33;;;;;;;7.40;3.78;;;;;;;;;;5190471;27;20030;-84
2021/04/07 02:35:01;;;;;;;10.10;4.18;;;;;;;;;;5207208;27;20432;-85
2021/04/07 02:37:29;;;;;;;8.27;4.18;;;;;;;;;;5192309;27;20043;-84
2021/04/07 02:39:58;;;;;;;10.30;4.68;;;;;;;;;;5205287;27;20591;-85
2021/04/07 02:42:27;;;;;;;11.55;3.97;;;;;;;;;;5206504;27;20041;-85
2021/04/07 02:44:55;;;;;;;8.05;3.85;;;;;;;;;;5205189;27;20378;-85
2021/04/07 02:47:23;;;;;;;7.25;4.53;;;;;;;;;;5186095;27;20460;-84
2021/04/07 02:49:51;;;;;;;8.13;4.35;;;;;;;;;;5208175;27;20026;-85
2021/04/07 02:52:20;;;;;;;6.72;3.95;;;;;;;;;;5206358;27;20078;-84
2021/04/07 02:54:48;;;;;;;9.95;4.22;;;;;;;;;;5203270;27;20449;-85
2021/04/07 02:57:16;;;;;;;9.73;4.22;;;;;;;;;;5209137;27;20030;-85
2021/04/07 02:59:44;;;;;;;8.02;3.92;;;;;;;;;;5186036;27;20031;-86
2021/04/07 03:02:14;;;;;;;5.75;3.67;;;;;;;;;;5207634;27;20040;-84
2021/04/07 03:04:42;;;;;;;10.05;4.00;;;;;;;;;;5210954;27;20398;-84
2021/04/07 03:07:10;;;;;;;6.28;3.83;;;;;;;;;;5208619;27;20037;-85
2021/04/07 03:09:38;;;;;;;8.80;4.15;;;;;;;;;;5204411;27;20449;-85
2021/04/07 03:12:09;;;;;;;11.55;4.25;;;;;;;;;;5208535;27;20057;-94
2021/04/07 03:14:45;;;;;;;17.62;4.57;;;;;;;;;;5177373;27;20085;-96
2021/04/07 03:17:19;;;;;;;11.88;4.22;;;;;;;;;;5178734;27;20019;-95
2021/04/07 03:19:49;;;;;;;11.05;4.22;;;;;;;;;;5176333;27;20061;-94
2021/04/07 03:22:21;;;;;;;9.27;4.70;;;;;;;;;;5173876;27;20409;-92
2021/04/07 03:25:04;;;;;;;11.52;3.95;;;;;;;;;;5181429;27;20025;-91
2021/04/07 03:27:38;;;;;;;9.60;4.32;;;;;;;;;;5178610;27;20042;-93
2021/04/07 03:30:06;;;;;;;13.38;4.45;;;;;;;;;;5191832;27;20026;-94
2021/04/07 03:32:39;;;;;;;9.68;4.60;;;;;;;;;;5174987;27;20031;-92
2021/04/07 03:35:07;;;;;;;8.95;4.12;;;;;;;;;;5172829;27;20045;-93
2021/04/07 03:37:38;;;;;;;7.05;3.80;;;;;;;;;;5169024;27;20042;-92
2021/04/07 03:40:09;;;;;;;9.52;4.28;;;;;;;;;;5175050;27;20030;-93
2021/04/07 03:42:43;;;;;;;;;;;;;;;;;;5178394;27;20068;-92
2021/04/07 03:45:11;;;;;;;7.50;3.90;;;;;;;;;;5175586;27;19937;-94
2021/04/07 03:47:47;;;;;;;13.80;4.70;;;;;;;;;;5179187;27;20023;-93
2021/04/07 03:50:18;;;;;;;9.10;4.78;;;;;;;;;;5176107;27;20033;-92
2021/04/07 03:52:46;;;;;;;11.65;4.40;;;;;;;;;;5175340;27;20113;-92
2021/04/07 03:55:14;;;;;;;11.90;4.50;;;;;;;;;;5177144;27;20797;-93
2021/04/07 03:57:54;;;;;;;8.07;3.87;;;;;;;;;;5179355;27;20437;-93
2021/04/07 04:00:22;;;;;;;7.50;3.72;;;;;;;;;;5197646;27;20442;-93
2021/04/07 04:02:51;;;;;;;13.30;4.50;;;;;;;;;;5192673;27;20031;-93
2021/04/07 04:05:24;;;;;;;11.07;4.57;;;;;;;;;;5195955;27;20019;-93
2021/04/07 04:07:52;;;;;;;15.35;4.90;;;;;;;;;;5178838;27;20025;-92
2021/04/07 04:10:23;;;;;;;10.93;4.87;;;;;;;;;;5180095;27;20094;-93
2021/04/07 04:12:53;;;;;;;15.20;4.68;;;;;;;;;;5172600;27;20023;-93
2021/04/07 04:15:24;;;;;;;14.20;4.70;;;;;;;;;;5170831;27;20103;-93
2021/04/07 04:17:55;;;;;;;10.05;4.35;;;;;;;;;;5190851;27;20034;-93
2021/04/07 04:20:29;;;;;;;8.68;3.95;;;;;;;;;;5179486;27;20375;-92
2021/04/07 04:22:58;;;;;;;11.60;4.37;;;;;;;;;;5175690;27;20033;-93
2021/04/07 04:25:28;;;;;;;14.45;5.72;;;;;;;;;;5192579;27;20035;-92
2021/04/07 04:27:59;;;;;;;9.13;4.45;;;;;;;;;;5174397;27;20057;-92
2021/04/07 04:30:34;;;;;;;12.40;7.37;;;;;;;;;;5173943;27;20046;-92
2021/04/07 04:33:02;;;;;;;10.10;3.92;;;;;;;;;;5174962;27;20050;-91
2021/04/07 04:35:31;;;;;;;14.40;4.45;;;;;;;;;;5177261;27;20069;-92
2021/04/07 04:38:01;;;;;;;10.93;4.10;;;;;;;;;;5178353;27;20061;-93
2021/04/07 04:40:29;;;;;;;9.10;3.92;;;;;;;;;;5196753;27;20045;-93
2021/04/07 04:43:04;;;;;;;10.18;4.22;;;;;;;;;;5172826;27;20123;-91
2021/04/07 04:45:42;;;;;;;7.55;3.45;;;;;;;;;;5172168;27;20070;-92
2021/04/07 04:48:12;;;;;;;6.87;3.78;;;;;;;;;;5175063;27;20457;-93
2021/04/07 04:50:40;;;;;;;8.05;3.65;;;;;;;;;;5172418;27;20485;-91
2021/04/07 04:53:08;;;;;;;7.07;3.30;;;;;;;;;;5170011;27;20062;-92
2021/04/07 04:55:37;;;;;;;8.00;4.10;;;;;;;;;;5171445;27;20034;-92
2021/04/07 04:58:07;;;;;;;9.43;3.83;;;;;;;;;;5173770;27;20030;-92
2021/04/07 05:00:37;;;;;;;9.63;3.47;;;;;;;;;;5177674;27;20031;-92
2021/04/07 05:03:25;;;;;;;10.27;3.85;;;;;;;;;;5177287;27;20097;-93
2021/04/07 05:05:54;;;;;;;6.78;3.60;;;;;;;;;;5173853;27;20469;-92
2021/04/07 05:08:22;;;;;;;11.18;4.22;;;;;;;;;;5174720;27;20031;-93
2021/04/07 05:10:53;;;;;;;12.88;3.83;;;;;;;;;;5179053;27;20049;-91
2021/04/07 05:13:23;;;;;;;9.45;3.70;;;;;;;;;;5215192;27;20041;-94
2021/04/07 05:15:51;;;;;;;7.53;3.78;;;;;;;;;;5199834;27;20029;-94
2021/04/07 05:18:25;;;;;;;10.90;4.25;;;;;;;;;;5199179;27;20022;-94
2021/04/07 05:20:55;;;;;;;10.90;4.30;;;;;;;;;;5199608;27;20045;-92
2021/04/07 05:23:26;;;;;;;7.62;3.95;;;;;;;;;;5197664;27;20015;-91
2021/04/07 05:25:59;;;;;;;9.32;4.10;;;;;;;;;;5202264;27;20033;-95
2021/04/07 05:28:29;;;;;;;8.15;3.80;;;;;;;;;;5200711;27;20057;-93
2021/04/07 05:31:01;;;;;;;9.40;3.72;;;;;;;;;;5199399;27;20052;-93
2021/04/07 05:33:31;;;;;;;8.30;3.60;;;;;;;;;;5196739;27;20053;-92
2021/04/07 05:36:03;;;;;;;11.07;5.05;;;;;;;;;;5200062;27;20034;-93
2021/04/07 05:38:31;;;;;;;9.90;4.80;;;;;;;;;;5197106;27;20034;-92
2021/04/07 05:41:07;;;;;;;13.70;4.87;;;;;;;;;;5196048;27;20029;-93
2021/04/07 05:43:59;;;;;;;12.73;4.80;;;;;;;;;;5199836;27;20077;-93
2021/04/07 05:46:35;;;;;;;10.02;4.62;;;;;;;;;;5200837;27;20010;-93
2021/04/07 05:49:06;;;;;;;11.40;4.65;;;;;;;;;;5198864;27;20050;-91
2021/04/07 05:51:34;;;;;;;10.77;4.15;;;;;;;;;;5199359;27;20030;-94
2021/04/07 05:54:02;;;;;;;8.43;3.75;;;;;;;;;;5197526;27;20073;-93
2021/04/07 05:56:35;;;;;;;12.30;4.35;;;;;;;;;;5215789;27;20030;-93
2021/04/07 05:59:03;;;;;;;11.10;4.30;;;;;;;;;;5197793;27;20422;-92
2021/04/07 06:01:33;;;;;;;11.98;3.90;;;;;;;;;;5199193;27;20022;-94
2021/04/07 06:04:04;;;;;;;9.48;4.60;;;;;;;;;;5200281;27;20113;-91
2021/04/07 06:06:32;;;;;;;14.75;5.15;;;;;;;;;;5217415;27;20022;-94
2021/04/07 06:09:06;;;;;;;9.13;4.37;;;;;;;;;;5217616;27;20034;-94
2021/04/07 06:11:42;;;;;;;11.43;4.25;;;;;;;;;;5200558;27;20044;-95
2021/04/07 06:14:19;;;;;;;10.85;4.50;;;;;;;;;;5203406;27;20038;-95
2021/04/07 06:16:59;;;;;;;8.20;4.43;;;;;;;;;;5204354;27;20031;-94
2021/04/07 06:19:31;;;;;;;10.02;4.18;;;;;;;;;;5202616;27;20038;-93
2021/04/07 06:21:59;;;;;;;11.80;4.47;;;;;;;;;;5202309;27;20023;-94
2021/04/07 06:24:28;;;;;;;11.35;4.45;;;;;;;;;;5202107;27;20342;-93
2021/04/07 06:26:56;;;;;;;16.33;5.35;;;;;;;;;;5200994;27;20093;-93
2021/04/07 06:29:29;;;;;;;12.98;4.75;;;;;;;;;;5211017;27;20026;-94
2021/04/07 06:31:59;;;;;;;12.77;4.82;;;;;;;;;;5196587;27;20064;-94
2021/04/07 06:34:30;;;;;;;9.65;4.78;;;;;;;;;;5194922;27;20053;-94
2021/04/07 06:36:59;;;;;;;7.47;4.57;;;;;;;;;;5193702;27;20030;-95
2021/04/07 06:39:29;;;;;;;14.75;4.57;;;;;;;;;;5196759;27;20026;-93
2021/04/07 06:42:00;;;;;;;15.80;4.75;;;;;;;;;;5197127;27;20030;-95
2021/04/07 06:44:34;;;;;;;22.08;5.20;;;;;;;;;;5214155;27;20058;-93
2021/04/07 06:47:05;;;;;;;13.25;4.57;;;;;;;;;;5198057;27;20026;-94
2021/04/07 06:49:43;;;;;;;14.55;5.35;;;;;;;;;;5198470;27;20030;-93
2021/04/07 06:52:17;;;;;;;11.52;4.47;;;;;;;;;;5197598;27;20031;-94
2021/04/07 06:54:47;;;;;;;24.37;15.40;;;;;;;;;;5197067;27;20026;-93
2021/04/07 06:57:19;;;;;;;11.23;4.93;;;;;;;;;;5195545;27;20038;-93
2021/04/07 06:59:48;;;;;;;17.42;5.18;;;;;;;;;;5196948;27;20046;-94
2021/04/07 07:02:18;;;;;;;11.52;5.03;;;;;;;;;;5197710;27;20380;-94
2021/04/07 07:04:48;;;;;;;13.05;5.03;;;;;;;;;;5197063;27;20054;-94
2021/04/07 07:07:17;;;;;;;8.52;4.70;;;;;;;;;;5196698;27;20029;-94
2021/04/07 07:09:57;;;;;;;12.45;4.95;;;;;;;;;;5197871;27;20049;-93
2021/04/07 07:12:27;;;;;;;13.57;4.55;;;;;;;;;;5196516;27;20445;-94
2021/04/07 07:15:04;;;;;;;14.13;4.90;;;;;;;;;;5197515;27;20054;-94
2021/04/07 07:17:38;;;;;;;13.25;5.22;;;;;;;;;;5197977;27;20049;-93
2021/04/07 07:20:28;;;;;;;9.25;4.78;;;;;;;;;;5197434;27;20065;-95
2021/04/07 07:22:59;;;;;;;18.40;8.15;;;;;;;;;;5197144;27;20114;-94
2021/04/07 07:25:29;;;;;;;13.85;12.50;;;;;;;;;;5197196;27;20419;-95
2021/04/07 07:28:20;;;;;;;26.42;24.08;;;;;;;;;;5203857;27;20094;-93
2021/04/07 07:30:54;;;;;;;10.85;4.68;;;;;;;;;;5196384;27;20048;-96
2021/04/07 07:33:25;;;;;;;8.57;7.55;;;;;;;;;;5196718;27;20045;-94
2021/04/07 07:36:08;;;;;;;72.30;53.33;;;;;;;;;;5196672;27;20027;-95
2021/04/07 07:38:47;;;;;;;6.87;4.37;;;;;;;;;;5200766;27;20026;-93
2021/04/07 07:41:18;;;;;;;8.30;4.85;;;;;;;;;;5201495;27;20037;-94
2021/04/07 07:43:48;;;;;;;7.72;4.18;;;;;;;;;;5201608;27;20010;-94
2021/04/07 07:46:20;;;;;;;9.60;5.70;;;;;;;;;;5205008;27;20384;-94
2021/04/07 07:48:53;;;;;;;7.15;4.30;;;;;;;;;;5202976;27;20052;-94
2021/04/07 07:51:26;;;;;;;43.50;36.92;;;;;;;;;;5202520;27;20018;-96
2021/04/07 07:53:55;;;;;;;8.68;4.80;;;;;;;;;;5202255;27;20019;-95
2021/04/07 07:56:37;;;;;;;9.27;5.43;;;;;;;;;;5201652;27;20061;-95
2021/04/07 07:59:31;;;;;;;20.08;15.35;;;;;;;;;;5204122;27;20029;-96
2021/04/07 08:02:14;;;;;;;10.35;9.30;;;;;;;;;;5202694;27;20572;-96
2021/04/07 08:04:47;;;;;;;18.10;16.40;;;;;;;;;;5203102;27;20014;-96
2021/04/07 08:07:38;;;;;;;24.60;21.83;;;;;;;;;;5204966;27;20056;-95
2021/04/07 08:10:07;;;;;;;9.80;6.53;;;;;;;;;;5201642;27;20026;-96
2021/04/07 08:12:45;;;;;;;13.07;4.32;;;;;;;;;;5202337;27;20030;-95
2021/04/07 08:15:13;;;;;;;;;;;;;;;;;;5203176;27;20100;-95
2021/04/07 08:17:41;;;;;;;11.02;3.20;;;;;;;;;;5201551;27;19941;-96
2021/04/07 08:20:22;;;;;;;10.77;2.90;;;;;;;;;;5203275;27;20072;-95
2021/04/07 08:22:56;;;;;;;10.60;2.97;;;;;;;;;;5204440;27;20030;-95
2021/04/07 08:25:26;;;;;;;10.13;3.55;;;;;;;;;;5186155;27;20077;-94
2021/04/07 08:27:55;;;;;;;9.02;2.95;;;;;;;;;;5199681;27;20027;-96
2021/04/07 08:30:28;;;;;;;9.13;2.80;;;;;;;;;;5197053;27;20458;-96
2021/04/07 08:33:00;;;;;;;12.32;2.70;;;;;;;;;;5194743;27;20445;-95
2021/04/07 08:35:28;;;;;;;10.90;3.15;;;;;;;;;;5195485;27;20040;-95
2021/04/07 08:38:01;;;;;;;10.27;2.95;;;;;;;;;;5198866;27;20033;-94
2021/04/07 09:41:30;;;;;;;11.45;2.95;;;;;;;;;;5223802;27;20041;-86
2021/04/07 09:44:00;;;;;;;14.52;3.17;;;;;;;;;;5226650;27;20054;-85
2021/04/07 09:46:29;;;;;;;6.45;2.60;;;;;;;;;;5230819;27;20026;-87
2021/04/07 09:48:58;;;;;;;8.70;2.58;;;;;;;;;;5213678;27;20077;-84
2021/04/07 09:51:28;;;;;;;10.07;3.10;;;;;;;;;;5208908;27;20062;-85
2021/04/07 09:54:24;;;;;;;8.07;2.60;;;;;;;;;;5228263;27;20049;-86
2021/04/07 09:57:02;;;;;;;14.98;3.08;;;;;;;;;;5231206;27;20023;-85
2021/04/07 09:59:32;;;;;;;9.43;2.33;;;;;;;;;;5228211;27;20038;-85
2021/04/07 10:02:00;;;;;;;10.45;3.22;;;;;;;;;;5229104;27;20754;-85
2021/04/07 10:04:29;;;;;;;7.45;2.42;;;;;;;;;;5211534;27;20056;-84
2021/04/07 10:07:08;;;;;;;6.95;2.65;;;;;;;;;;5229534;27;20849;-84
2021/04/07 10:09:37;;;;;;;8.02;2.55;;;;;;;;;;5230526;27;20615;-85
2021/04/07 10:12:08;;;;;;;10.38;2.90;;;;;;;;;;5230418;27;20058;-86
2021/04/07 10:14:37;;;;;;;13.10;2.75;;;;;;;;;;5207962;27;20538;-85
2021/04/07 10:17:12;;;;;;;6.70;2.17;;;;;;;;;;5230263;27;20026;-85
2021/04/07 10:19:40;;;;;;;6.30;2.15;;;;;;;;;;5213068;27;20369;-85
2021/04/07 10:22:15;;;;;;;8.65;2.35;;;;;;;;;;5227802;27;20023;-85
2021/04/07 10:24:55;;;;;;;8.40;2.58;;;;;;;;;;5226710;27;20531;-85
2021/04/07 10:27:24;;;;;;;7.72;2.42;;;;;;;;;;5231768;27;20353;-84
2021/04/07 10:30:05;;;;;;;12.50;2.95;;;;;;;;;;5228202;27;20507;-85
2021/04/07 10:32:41;;;;;;;8.23;2.70;;;;;;;;;;5228479;27;20018;-84
2021/04/07 10:35:10;;;;;;;7.30;2.53;;;;;;;;;;5228229;27;20019;-84
2021/04/07 10:37:38;;;;;;;7.87;2.35;;;;;;;;;;5230372;27;20050;-84
2021/04/07 10:40:17;;;;;;;11.30;2.70;;;;;;;;;;5228966;27;20068;-85
2021/04/07 10:42:46;;;;;;;8.75;2.78;;;;;;;;;;5208353;27;20050;-84
2021/04/07 10:45:17;;;;;;;10.10;2.40;;;;;;;;;;5228200;27;20413;-85
2021/04/07 10:47:46;;;;;;;11.40;2.53;;;;;;;;;;5230502;27;20049;-85
2021/04/07 10:50:14;;;;;;;9.00;2.17;;;;;;;;;;5229728;27;20508;-84
2021/04/07 10:52:47;;;;;;;8.80;2.40;;;;;;;;;;5228289;27;20357;-85
2021/04/07 10:55:21;;;;;;;13.18;2.97;;;;;;;;;;5209772;27;20026;-84
2021/04/07 10:57:49;;;;;;;;;;;;;;;;;;5231309;27;20483;-85
2021/04/07 11:00:26;;;;;;;11.10;2.58;;;;;;;;;;5229908;27;19981;-85
2021/04/07 11:02:55;;;;;;;8.88;2.95;;;;;;;;;;5226708;27;20302;-85
2021/04/07 11:05:28;;;;;;;5.70;2.40;;;;;;;;;;5212030;27;20070;-85
2021/04/07 11:17:53;;;;;;;7.87;2.33;;;;;;;;;;4502862;29;19971;-85
2021/04/07 11:20:39;;;;;;;5.05;2.10;;;;;;;;;;4130266;34;20128;-85
2021/04/07 11:23:07;;;;;;;8.23;2.28;;;;;;;;;;4131001;34;20123;-85
2021/04/07 11:25:44;;;;;;;6.07;2.10;;;;;;;;;;4129591;34;20072;-85
2021/04/07 11:28:12;;;;;;;;;;;;;;;;;;4134619;34;20412;-85
2021/04/07 11:30:43;;;;;;;10.25;2.60;;;;;;;;;;4138382;34;20442;-85
2021/04/07 11:33:12;;;;;;;5.93;2.40;;;;;;;;;;4135738;34;20116;-85
2021/04/07 11:36:11;;;;;;;8.43;2.15;;;;;;;;;;4128062;34;20469;-85
2021/04/07 11:38:45;;;;;;;7.37;2.40;;;;;;;;;;4133291;34;20060;-85
2021/04/07 11:46:57;;;;;;;7.10;2.50;;;;;;;;;;4135455;34;20068;-84
2021/04/07 11:49:26;;;;;;;8.93;2.37;;;;;;;;;;4135143;34;20107;-84
2021/04/07 11:51:54;;;;;;;7.43;2.67;;;;;;;;;;4135109;34;20146;-84
2021/04/07 11:54:22;;;;;;;7.65;2.50;;;;;;;;;;4136980;34;20073;-85
2021/04/07 11:56:50;;;;;;;5.68;2.30;;;;;;;;;;4127422;34;20191;-85
2021/04/07 11:59:20;;;;;;;14.98;4.53;;;;;;;;;;4133855;34;20094;-85
2021/04/07 12:01:49;;;;;;;7.60;2.37;;;;;;;;;;4133254;34;20142;-85
2021/04/07 12:04:20;;;;;;;5.03;2.17;;;;;;;;;;4138220;34;20159;-84
2021/04/07 12:06:48;;;;;;;7.30;2.50;;;;;;;;;;4137083;34;20385;-85
2021/04/07 12:09:15;;;;;;;6.37;2.30;;;;;;;;;;4134828;34;20393;-85
2021/04/07 12:11:44;;;;;;;5.03;1.85;;;;;;;;;;4130510;34;20065;-85
2021/04/07 12:14:12;;;;;;;7.45;2.42;;;;;;;;;;4130585;34;20096;-85
2021/04/07 12:16:40;;;;;;;7.93;2.50;;;;;;;;;;4127888;34;20068;-85
2021/04/07 12:19:10;;;;;;;5.90;2.10;;;;;;;;;;4123103;34;20091;-85
2021/04/07 12:21:38;;;;;;;5.90;2.10;;;;;;;;;;4125728;34;20127;-85
2021/04/07 12:24:07;;;;;;;5.68;2.28;;;;;;;;;;4124870;34;20075;-85
2021/04/07 12:26:35;;;;;;;9.55;2.40;;;;;;;;;;4117376;34;21180;-85
2021/04/07 12:29:04;;;;;;;6.75;1.98;;;;;;;;;;4118127;34;20508;-84
2021/04/07 12:32:02;;;;;;;4.87;2.10;;;;;;;;;;4122615;34;20132;-84
2021/04/07 12:34:30;;;;;;;7.28;2.15;;;;;;;;;;4124017;34;20088;-84
2021/04/07 12:36:59;;;;;;;6.97;2.20;;;;;;;;;;4126374;34;20519;-85
2021/04/07 12:39:27;;;;;;;6.18;2.40;;;;;;;;;;4121540;34;20197;-84
2021/04/07 12:42:02;;;;;;;9.02;2.60;;;;;;;;;;4124269;34;20079;-84
2021/04/07 12:44:30;;;;;;;7.45;2.25;;;;;;;;;;4126903;34;20073;-85
2021/04/07 12:46:58;;;;;;;7.05;1.95;;;;;;;;;;4128022;34;20078;-84
2021/04/07 12:49:26;;;;;;;5.87;1.83;;;;;;;;;;4125682;34;20531;-84
2021/04/07 12:51:54;;;;;;;9.48;2.40;;;;;;;;;;4125254;34;20190;-84
2021/04/07 12:54:22;;;;;;;10.35;2.70;;;;;;;;;;4123157;34;20135;-84
2021/04/07 12:56:50;;;;;;;7.70;2.42;;;;;;;;;;4120786;34;20080;-84
2021/04/07 12:59:18;;;;;;;9.20;2.60;;;;;;;;;;4125640;34;20100;-84
2021/04/07 13:01:46;;;;;;;9.43;2.40;;;;;;;;;;4123110;34;20532;-84
2021/04/07 13:04:14;;;;;;;6.07;2.15;;;;;;;;;;4122929;34;20350;-84
2021/04/07 13:06:43;;;;;;;7.37;2.55;;;;;;;;;;4126766;34;20083;-84
2021/04/07 13:09:11;;;;;;;9.02;2.40;;;;;;;;;;4125953;34;20069;-84
2021/04/07 13:11:39;;;;;;;8.10;2.20;;;;;;;;;;4123517;34;20130;-84
2021/04/07 13:14:07;;;;;;;6.62;2.20;;;;;;;;;;4129966;34;20089;-84
2021/04/07 13:16:35;;;;;;;8.90;2.35;;;;;;;;;;4123969;34;20095;-84
2021/04/07 13:19:07;;;;;;;8.07;2.30;;;;;;;;;;4124737;34;20132;-83
2021/04/07 13:21:37;;;;;;;123.10;9.85;;;;;;;;;;4125865;34;20172;-84
2021/04/07 13:24:05;;;;;;;9.27;2.50;;;;;;;;;;4126253;34;20079;-85
2021/04/07 13:26:33;;;;;;;6.72;2.20;;;;;;;;;;4124861;34;20633;-84
2021/04/07 13:29:01;;;;;;;25.33;4.78;;;;;;;;;;4122619;34;20060;-84
2021/04/07 13:31:29;;;;;;;10.30;2.40;;;;;;;;;;4121898;34;20111;-84
2021/04/07 13:34:06;;;;;;;9.32;2.40;;;;;;;;;;4125226;34;20061;-84
2021/04/07 13:36:59;;;;;;;7.85;2.35;;;;;;;;;;4128007;34;20065;-83
2021/04/07 13:39:39;;;;;;;7.90;2.80;;;;;;;;;;4125500;34;20060;-84
2021/04/07 13:44:45;;;;;;;9.88;2.67;;;;;;;;;;4126729;34;20173;-84
2021/04/07 13:47:16;;;;;;;7.45;2.70;;;;;;;;;;4123941;34;20071;-83
2021/04/07 13:49:44;;;;;;;9.05;2.45;;;;;;;;;;4126852;34;20441;-84
2021/04/07 13:52:12;;;;;;;6.35;2.40;;;;;;;;;;4123796;34;20131;-84
2021/04/07 13:54:43;;;;;;;8.73;2.80;;;;;;;;;;4124800;34;20061;-84
2021/04/07 13:57:19;;;;;;;9.65;2.90;;;;;;;;;;4125671;34;20080;-84
2021/04/07 13:59:48;;;;;;;6.20;2.40;;;;;;;;;;4122758;34;20087;-84
2021/04/07 14:02:16;;;;;;;10.80;2.50;;;;;;;;;;4118953;34;20065;-84
2021/04/07 14:04:44;;;;;;;9.90;2.50;;;;;;;;;;4118132;34;20069;-83
2021/04/07 14:07:15;;;;;;;10.10;2.47;;;;;;;;;;4129699;34;20466;-83
2021/04/07 14:09:47;;;;;;;7.00;2.35;;;;;;;;;;4121809;34;20393;-84
2021/04/07 14:12:32;;;;;;;23.70;3.90;;;;;;;;;;4128707;34;20057;-84
2021/04/07 14:14:59;;;;;;;9.23;2.40;;;;;;;;;;4126405;34;20062;-83
2021/04/07 14:17:28;;;;;;;7.05;2.20;;;;;;;;;;4124892;34;20061;-84
2021/04/07 14:19:56;;;;;;;9.95;2.78;;;;;;;;;;4123375;34;20088;-83
2021/04/07 14:22:24;;;;;;;8.40;2.40;;;;;;;;;;4128386;34;20068;-84
2021/04/07 14:24:52;;;;;;;9.77;2.65;;;;;;;;;;4118505;34;20598;-84
2021/04/07 14:27:20;;;;;;;9.27;2.15;;;;;;;;;;4121522;34;20127;-83
2021/04/07 14:29:48;;;;;;;6.53;1.83;;;;;;;;;;4121901;34;20111;-83
2021/04/07 14:32:17;;;;;;;6.93;2.40;;;;;;;;;;4128144;34;20064;-83
2021/04/07 14:34:45;;;;;;;7.22;2.55;;;;;;;;;;4126735;34;20453;-84
2021/04/07 14:37:13;;;;;;;8.40;2.05;;;;;;;;;;4126137;34;20172;-83
2021/04/07 14:39:41;;;;;;;9.15;2.30;;;;;;;;;;4124839;34;20166;-84
2021/04/07 14:42:11;;;;;;;10.13;2.67;;;;;;;;;;4128431;34;20612;-84
2021/04/07 14:44:39;;;;;;;10.10;2.50;;;;;;;;;;4125511;34;21422;-84
2021/04/07 14:47:07;;;;;;;9.55;2.65;;;;;;;;;;4119806;34;20117;-83
2021/04/07 14:49:36;;;;;;;10.90;2.67;;;;;;;;;;4122281;34;20133;-84
2021/04/07 14:52:08;;;;;;;11.57;2.80;;;;;;;;;;4127037;34;20504;-83
2021/04/07 14:54:39;;;;;;;9.55;2.35;;;;;;;;;;4125717;34;20167;-83
2021/04/07 14:57:07;;;;;;;10.10;2.85;;;;;;;;;;4123909;34;20149;-83
2021/04/07 14:59:35;;;;;;;7.75;2.50;;;;;;;;;;4122039;34;20141;-84
2021/04/07 15:02:04;;;;;;;10.88;2.78;;;;;;;;;;4127164;34;20060;-84
2021/04/07 15:04:33;;;;;;;10.93;2.33;;;;;;;;;;4118884;34;20097;-84
2021/04/07 15:07:01;;;;;;;9.27;2.72;;;;;;;;;;4124757;34;20055;-84
2021/04/07 15:09:30;;;;;;;11.00;3.08;;;;;;;;;;4120145;34;20080;-83
2021/04/07 15:11:58;;;;;;;8.00;2.70;;;;;;;;;;4120678;34;20057;-82
2021/04/07 15:14:27;;;;;;;9.27;2.70;;;;;;;;;;4121032;34;20124;-84
2021/04/07 15:16:56;;;;;;;7.80;2.40;;;;;;;;;;4115491;34;20138;-83
2021/04/07 15:19:24;;;;;;;8.13;2.35;;;;;;;;;;4117326;34;20476;-84
2021/04/07 15:21:53;;;;;;;17.67;2.80;;;;;;;;;;4121500;34;20381;-83
2021/04/07 15:24:22;;;;;;;8.27;2.40;;;;;;;;;;4115897;34;20430;-83
2021/04/07 15:27:04;;;;;;;11.55;2.50;;;;;;;;;;4117492;34;20097;-83
2021/04/07 15:29:32;;;;;;;14.77;3.12;;;;;;;;;;4135936;34;20530;-84
2021/04/07 15:32:00;;;;;;;5.35;2.10;;;;;;;;;;4128440;34;20057;-84
2021/04/07 15:34:28;;;;;;;11.00;2.35;;;;;;;;;;4123552;34;20056;-83
2021/04/07 15:36:57;;;;;;;8.10;2.60;;;;;;;;;;4123416;34;20062;-84
2021/04/07 15:39:25;;;;;;;5.45;2.60;;;;;;;;;;4117593;34;20531;-84
2021/04/07 15:41:53;;;;;;;5.82;2.15;;;;;;;;;;4126715;34;20095;-84
2021/04/07 15:44:21;;;;;;;10.77;2.75;;;;;;;;;;4126407;34;20113;-84
2021/04/07 15:46:49;;;;;;;11.93;2.50;;;;;;;;;;4119630;34;20061;-84
2021/04/07 15:49:18;;;;;;;17.52;2.87;;;;;;;;;;4118927;34;20128;-83
2021/04/07 15:51:46;;;;;;;9.73;2.37;;;;;;;;;;4120133;34;20120;-84
2021/04/07 15:54:26;;;;;;;11.63;2.60;;;;;;;;;;4115545;34;20425;-82
2021/04/07 15:56:54;;;;;;;8.85;2.80;;;;;;;;;;4121898;34;20069;-84
2021/04/07 15:59:22;;;;;;;9.98;2.25;;;;;;;;;;4125811;34;20130;-84
2021/04/07 16:01:50;;;;;;;6.10;2.22;;;;;;;;;;4125565;34;20418;-84
2021/04/07 16:04:19;;;;;;;6.80;2.60;;;;;;;;;;4123681;34;20057;-83
2021/04/07 16:06:47;;;;;;;6.80;2.55;;;;;;;;;;4122492;34;20061;-84
2021/04/07 16:09:15;;;;;;;8.93;2.53;;;;;;;;;;4124023;34;20080;-83
2021/04/07 16:11:43;;;;;;;9.85;2.67;;;;;;;;;;4123862;34;20128;-84
2021/04/07 16:14:11;;;;;;;7.18;2.20;;;;;;;;;;4122070;34;20468;-83
2021/04/07 16:16:39;;;;;;;7.00;2.30;;;;;;;;;;4124458;34;20080;-84
2021/04/07 16:19:07;;;;;;;5.47;2.10;;;;;;;;;;4125093;34;20065;-84